createdAt,value
2022-09-23T00:02:39.182Z,100.00
2022-09-23T00:07:42.443Z,100.00
2022-09-23T00:12:45.419Z,100.00
2022-09-23T00:17:49.813Z,100.00
2022-09-23T00:22:53.457Z,100.00
2022-09-23T00:27:56.536Z,100.00
2022-09-23T00:33:01.051Z,100.00
2022-09-23T00:38:04.036Z,100.00
2022-09-23T00:43:07.090Z,100.00
2022-09-23T00:48:15.465Z,100.00
2022-09-23T00:53:22.640Z,100.00
2022-09-23T00:58:28.025Z,100.00
2022-09-23T01:03:32.759Z,100.00
2022-09-23T01:08:35.732Z,100.00
2022-09-23T01:13:44.509Z,100.00
2022-09-23T01:18:50.938Z,100.00
2022-09-23T01:24:13.551Z,100.00
2022-09-23T01:29:31.054Z,100.00
2022-09-23T01:34:37.684Z,100.00
2022-09-23T01:39:44.573Z,100.00
2022-09-23T01:44:52.417Z,100.00
2022-09-23T01:49:58.980Z,100.00
2022-09-23T01:55:05.775Z,100.00
2022-09-23T02:00:11.594Z,100.00
2022-09-23T02:05:18.712Z,100.00
2022-09-23T02:10:25.208Z,100.00
2022-09-23T02:15:33.850Z,100.00
2022-09-23T02:20:39.801Z,100.00
2022-09-23T02:25:45.958Z,100.00
2022-09-23T02:30:51.961Z,100.00
2022-09-23T02:35:59.187Z,100.00
2022-09-23T02:41:05.676Z,100.00
2022-09-23T02:46:08.737Z,100.00
2022-09-23T02:51:13.878Z,100.00
2022-09-23T02:56:17.374Z,100.00
2022-09-23T03:01:32.692Z,100.00
2022-09-23T03:06:43.200Z,100.00
2022-09-23T03:11:49.596Z,100.00
2022-09-23T03:16:58.316Z,100.00
2022-09-23T03:22:05.559Z,100.00
2022-09-23T03:27:13.903Z,100.00
2022-09-23T03:32:18.164Z,100.00
2022-09-23T03:37:26.322Z,100.00
2022-09-23T03:42:31.095Z,100.00
2022-09-23T03:47:34.124Z,100.00
2022-09-23T03:52:39.944Z,100.00
2022-09-23T03:57:43.036Z,100.00
2022-09-23T04:02:46.068Z,100.00
2022-09-23T04:07:51.167Z,100.00
2022-09-23T04:12:54.060Z,100.00
2022-09-23T04:17:57.018Z,100.00
2022-09-23T04:23:01.323Z,100.00
2022-09-23T04:28:04.299Z,100.00
2022-09-23T04:33:07.263Z,100.00
2022-09-23T04:38:11.818Z,100.00
2022-09-23T04:43:15.896Z,100.00
2022-09-23T04:48:19.093Z,100.00
2022-09-23T04:53:23.763Z,100.00
2022-09-23T04:58:26.745Z,100.00
2022-09-23T05:03:30.268Z,100.00
2022-09-23T05:08:34.973Z,100.00
2022-09-23T05:13:37.909Z,100.00
2022-09-23T05:18:42.862Z,100.00
2022-09-23T05:23:50.206Z,100.00
2022-09-23T05:28:53.882Z,100.00
2022-09-23T05:33:58.332Z,100.00
2022-09-23T05:39:02.752Z,100.00
2022-09-23T05:44:05.973Z,100.00
2022-09-23T05:49:10.167Z,100.00
2022-09-23T05:54:14.915Z,100.00
2022-09-23T05:59:17.930Z,100.00
2022-09-23T06:04:20.855Z,100.00
2022-09-23T06:09:25.245Z,100.00
2022-09-23T06:14:28.819Z,100.00
2022-09-23T06:19:31.873Z,100.00
2022-09-23T06:24:36.259Z,100.00
2022-09-23T06:29:39.254Z,100.00
2022-09-23T06:34:51.557Z,100.00
2022-09-23T06:39:56.488Z,100.00
2022-09-23T06:45:00.197Z,100.00
2022-09-23T06:50:03.171Z,100.00
2022-09-23T06:55:09.164Z,100.00
2022-09-23T07:00:13.550Z,100.00
2022-09-23T07:05:17.393Z,100.00
2022-09-23T07:10:21.804Z,100.00
2022-09-23T07:15:24.755Z,100.00
2022-09-23T07:20:27.673Z,100.00
2022-09-23T07:25:34.257Z,100.00
2022-09-23T07:30:38.753Z,100.00
2022-09-23T07:35:43.388Z,100.00
2022-09-23T07:40:47.797Z,100.00
2022-09-23T07:45:51.622Z,100.00
2022-09-23T07:50:55.074Z,97.97
2022-09-23T07:55:59.613Z,97.36
2022-09-23T08:01:04.669Z,95.74
2022-09-23T08:06:08.605Z,91.78
2022-09-23T08:11:14.304Z,92.08
2022-09-23T08:16:17.417Z,91.20
2022-09-23T08:21:21.202Z,89.16
2022-09-23T08:26:25.582Z,90.02
2022-09-23T08:31:28.613Z,88.89
2022-09-23T08:36:32.166Z,87.09
2022-09-23T08:41:40.400Z,85.95
2022-09-23T08:46:46.525Z,84.23
2022-09-23T08:51:50.902Z,84.07
2022-09-23T08:56:57.229Z,82.45
2022-09-23T09:02:01.550Z,80.95
2022-09-23T09:07:35.330Z,81.00
2022-09-23T09:12:42.505Z,78.76
2022-09-23T09:17:49.800Z,77.62
2022-09-23T09:22:57.751Z,76.00
2022-09-23T09:28:02.568Z,74.10
2022-09-23T09:33:08.086Z,72.80
2022-09-23T09:38:11.049Z,71.06
2022-09-23T09:43:23.245Z,72.02
2022-09-23T09:48:32.470Z,71.39
2022-09-23T09:53:35.855Z,70.49
2022-09-23T09:58:44.974Z,64.24
2022-09-23T10:03:48.201Z,64.09
2022-09-23T10:09:04.531Z,62.90
2022-09-23T10:14:13.672Z,60.12
2022-09-23T10:19:25.205Z,60.38
2022-09-23T10:24:30.995Z,57.94
2022-09-23T10:29:39.701Z,57.38
2022-09-23T10:34:45.053Z,57.18
2022-09-23T10:40:05.448Z,55.79
2022-09-23T10:45:41.068Z,54.08
2022-09-23T10:50:49.041Z,52.46
2022-09-23T10:56:05.625Z,52.71
2022-09-23T11:01:15.711Z,51.38
2022-09-23T11:06:25.115Z,50.11
2022-09-23T11:11:34.207Z,50.90
2022-09-23T11:16:45.636Z,50.09
2022-09-23T11:21:58.356Z,51.59
2022-09-23T11:27:06.756Z,49.75
2022-09-23T11:32:23.575Z,49.24
2022-09-23T11:37:28.907Z,49.71
2022-09-23T11:42:35.228Z,48.10
2022-09-23T11:47:44.056Z,47.19
2022-09-23T11:52:51.109Z,46.09
2022-09-23T11:57:55.434Z,48.28
2022-09-23T12:03:06.608Z,48.29
2022-09-23T12:08:16.195Z,48.24
2022-09-23T12:13:21.477Z,49.71
2022-09-23T12:18:36.022Z,47.11
2022-09-23T12:23:46.803Z,48.25
2022-09-23T12:28:50.898Z,49.31
2022-09-23T12:33:55.523Z,49.38
2022-09-23T12:39:03.267Z,47.76
2022-09-23T12:44:16.844Z,44.59
2022-09-23T12:49:26.232Z,46.32
2022-09-23T12:54:30.105Z,46.22
2022-09-23T12:59:34.635Z,46.99
2022-09-23T13:05:05.420Z,48.06
2022-09-23T13:10:12.275Z,49.90
2022-09-23T13:15:22.694Z,49.67
2022-09-23T13:20:38.494Z,49.02
2022-09-23T13:25:43.294Z,49.70
2022-09-23T13:30:49.777Z,49.64
2022-09-23T13:35:56.836Z,49.89
2022-09-23T13:41:01.195Z,48.96
2022-09-23T13:46:05.334Z,48.64
2022-09-23T13:51:11.264Z,48.40
2022-09-23T13:56:15.050Z,48.12
2022-09-23T14:01:23.785Z,48.29
2022-09-23T14:06:30.449Z,48.20
2022-09-23T14:11:35.501Z,48.36
2022-09-23T14:16:40.307Z,50.26
2022-09-23T14:21:44.815Z,50.38
2022-09-23T14:26:49.074Z,51.11
2022-09-23T14:31:57.251Z,51.65
2022-09-23T14:37:27.323Z,52.79
2022-09-23T14:42:38.523Z,52.74
2022-09-23T14:47:46.257Z,53.35
2022-09-23T14:52:53.646Z,54.03
2022-09-23T14:58:02.597Z,53.89
2022-09-23T15:03:12.790Z,54.40
2022-09-23T15:08:18.833Z,54.64
2022-09-23T15:13:23.327Z,54.99
2022-09-23T15:18:28.892Z,55.33
2022-09-23T15:23:34.665Z,55.21
2022-09-23T15:28:37.710Z,55.61
2022-09-23T15:33:40.786Z,55.54
2022-09-23T15:38:45.901Z,56.06
2022-09-23T15:43:48.961Z,55.99
2022-09-23T15:48:58.682Z,56.75
2022-09-23T15:54:03.957Z,56.84
2022-09-23T15:59:07.126Z,57.80
2022-09-23T16:04:11.253Z,57.98
2022-09-23T16:09:15.865Z,58.84
2022-09-23T16:14:19.725Z,58.91
2022-09-23T16:19:22.683Z,59.29
2022-09-23T16:24:28.448Z,59.91
2022-09-23T16:29:31.538Z,61.86
2022-09-23T16:34:34.947Z,63.16
2022-09-23T16:39:39.319Z,63.84
2022-09-23T16:44:42.649Z,64.54
2022-09-23T16:49:45.682Z,65.92
2022-09-23T16:54:50.649Z,66.96
2022-09-23T17:00:10.839Z,68.28
2022-09-23T17:05:17.184Z,69.71
2022-09-23T17:10:21.631Z,70.94
2022-09-23T17:15:24.605Z,72.21
2022-09-23T17:20:27.568Z,72.99
2022-09-23T17:25:32.299Z,74.50
2022-09-23T17:30:35.286Z,75.64
2022-09-23T17:35:40.987Z,75.90
2022-09-23T17:40:51.597Z,76.65
2022-09-23T17:45:55.530Z,77.22
2022-09-23T17:50:59.197Z,77.42
2022-09-23T17:56:05.403Z,75.82
2022-09-23T18:01:10.124Z,76.26
2022-09-23T18:06:14.033Z,76.65
2022-09-23T18:11:19.937Z,77.46
2022-09-23T18:16:24.781Z,77.54
2022-09-23T18:21:29.466Z,76.38
2022-09-23T18:26:34.505Z,75.12
2022-09-23T18:31:38.400Z,75.52
2022-09-23T18:36:41.455Z,75.94
2022-09-23T18:41:46.255Z,77.02
2022-09-23T18:46:49.668Z,77.02
2022-09-23T18:51:54.623Z,76.55
2022-09-23T18:57:01.287Z,76.93
2022-09-23T19:02:04.581Z,77.57
2022-09-23T19:07:08.230Z,77.94
2022-09-23T19:12:13.215Z,76.98
2022-09-23T19:17:16.351Z,77.17
2022-09-23T19:22:22.435Z,77.70
2022-09-23T19:27:26.707Z,78.13
2022-09-23T19:32:30.117Z,79.49
2022-09-23T19:37:33.516Z,81.23
2022-09-23T19:42:38.250Z,80.36
2022-09-23T19:47:41.432Z,79.67
2022-09-23T19:52:44.609Z,79.70
2022-09-23T19:57:49.352Z,80.47
2022-09-23T20:02:52.713Z,81.24
2022-09-23T20:07:55.995Z,81.06
2022-09-23T20:13:00.602Z,82.34
2022-09-23T20:18:03.671Z,82.90
2022-09-23T20:23:06.762Z,84.54
2022-09-23T20:28:11.139Z,85.21
2022-09-23T20:33:15.223Z,85.93
2022-09-23T20:38:18.210Z,85.63
2022-09-23T20:43:22.638Z,86.23
2022-09-23T20:48:25.647Z,86.70
2022-09-23T20:53:28.651Z,86.81
2022-09-23T20:58:36.576Z,87.41
2022-09-23T21:03:40.381Z,88.16
2022-09-23T21:08:44.491Z,88.28
2022-09-23T21:13:49.782Z,88.20
2022-09-23T21:18:52.903Z,88.87
2022-09-23T21:24:07.080Z,89.01
2022-09-23T21:29:20.082Z,89.73
2022-09-23T21:34:26.066Z,89.26
2022-09-23T21:39:29.012Z,90.32
2022-09-23T21:44:33.373Z,90.51
2022-09-23T21:49:36.819Z,90.63
2022-09-23T21:54:40.082Z,91.61
2022-09-23T21:59:44.427Z,92.20
2022-09-23T22:04:47.382Z,92.56
2022-09-23T22:09:50.417Z,94.43
2022-09-23T22:14:55.127Z,94.36
2022-09-23T22:19:58.546Z,94.88
2022-09-23T22:25:01.580Z,94.75
2022-09-23T22:30:24.261Z,94.67
2022-09-23T22:35:27.177Z,94.37
2022-09-23T22:40:30.202Z,94.32
2022-09-23T22:45:34.925Z,94.88
2022-09-23T22:50:39.856Z,95.16
2022-09-23T22:55:43.191Z,95.70
2022-09-23T23:00:47.618Z,96.22
2022-09-23T23:05:50.630Z,95.91
2022-09-23T23:10:55.000Z,96.54
2022-09-23T23:16:04.782Z,96.61
2022-09-23T23:21:08.627Z,97.01
2022-09-23T23:26:13.079Z,97.05
2022-09-23T23:31:18.878Z,97.31
2022-09-23T23:36:22.746Z,98.42
2022-09-23T23:41:25.973Z,99.11
2022-09-23T23:46:31.733Z,100.00
2022-09-23T23:51:34.773Z,98.79
2022-09-23T23:56:37.862Z,97.76
